Celebrity Mercury — 9HJG9 — position and weather

sailwx.info

Track history (hours):
 
Tides and Currents Weather Stations Pressure Air Temp Water Temp Dewpoint Dewpoint Depression Visibility Wind Speed Wind Dir Waves Ship Positions

Celebrity Mercury

Last reported at 2019-Dec-06 04:29 UTC. Time now 2019-Dec-06 06:29 UTC.
Position N 28°08' W 015°25'.

Length 264 m; draft 8.5 m.

Type: Passenger vessel. MMSI: 249053000.

Date/timePositionNaut miles runAvg speedWind from/ knotsBaromVisibWave heightAir tempDewpointWater temp
2019-Dec-06 04:29N 28°08' W 015°25'0 0.0
2019-Dec-06 01:58N 28°08' W 015°25'0 0.0
2019-Dec-06 01:28N 28°08' W 015°25'0 0.0
2019-Dec-05 22:29N 28°08' W 015°25'0 0.0
2019-Dec-05 19:27N 28°08' W 015°25'0 0.0
2019-Dec-05 18:27N 28°08' W 015°25'0 0.0
2019-Dec-05 17:30N 28°08' W 015°25'0 0.0
2019-Dec-05 16:30N 28°08' W 015°25'0 0.0
2019-Dec-05 15:30N 28°08' W 015°25'0 0.0
2019-Dec-05 13:31N 28°08' W 015°25'2 4.5
2019-Dec-05 13:01N 28°08' W 015°23'19519.4
2019-Dec-05 03:00N 31°18' W 016°12'229 8.8 030 / 351015.027.0 16.812.524.0
2019-Dec-04 01:00N 34°00' W 019°24'14913.6 360 / 161022.027.0 18.112.225.0
2019-Dec-03 14:00N 35°24' W 021°54'4916.4 340 / 101022.027.0 20.212.824.0
2019-Dec-03 11:00N 35°54' W 022°42'5915.4 280 / 31024.010.8 18.0 24.0
2019-Dec-03 07:08N 36°27' W 023°43'1015.3
2019-Dec-03 06:31N 36°33' W 023°53'1515.2
2019-Dec-03 05:31N 36°42' W 024°08'1615.7
2019-Dec-03 04:30N 36°51' W 024°24'815.6
2019-Dec-03 04:00N 36°55' W 024°32'815.3
2019-Dec-03 03:30N 36°60' W 024°40'712.8
2019-Dec-03 03:00N 37°00' W 024°48'4116.4 200 / 161021.027.0 18.414.224.0
2019-Dec-03 00:30N 37°30' W 025°22'2013.1
2019-Dec-02 23:00N 37°44' W 025°40'0 0.1
2019-Dec-02 22:30N 37°44' W 025°40'0 0.0
2019-Dec-02 21:30N 37°44' W 025°40'0 0.0
2019-Dec-02 19:30N 37°44' W 025°40'0 0.0
2019-Dec-02 19:00N 37°44' W 025°40'0 0.0
2019-Dec-02 18:30N 37°44' W 025°40'0 0.0
2019-Dec-02 17:30N 37°44' W 025°40'0 0.0
2019-Dec-02 17:00N 37°44' W 025°40'0 0.0
2019-Dec-02 16:00N 37°44' W 025°40'0 0.0
2019-Dec-02 13:00N 37°44' W 025°40'0 0.0
2019-Dec-02 11:28N 37°44' W 025°40'0 0.0
2019-Dec-02 08:30N 37°44' W 025°40'3 3.0
2019-Dec-02 07:31N 37°43' W 025°43'4 7.1
2019-Dec-02 07:01N 37°44' W 025°47'8 7.6
2019-Dec-02 06:00N 37°49' W 025°55'11 7.5
2019-Dec-02 04:31N 37°57' W 026°05'4 7.9
2019-Dec-02 04:01N 37°60' W 026°08'2105.5
2019-Dec-02 04:00N 38°00' W 026°06'510.6 170 / 171026.027.0 19.116.024.0
2019-Dec-02 03:30N 38°02' W 026°12'16 7.8
2019-Dec-02 01:30N 38°14' W 026°26'15 7.7
2019-Dec-01 23:30N 38°25' W 026°39'26 6.8
2019-Dec-01 19:41N 38°43' W 027°03'0 0.0
2019-Dec-01 11:23N 38°43' W 027°03'0 0.0
2019-Dec-01 08:30N 38°43' W 027°03'3010.1
2019-Dec-01 05:30N 38°17' W 026°43'612.8
2019-Dec-01 05:00N 38°11' W 026°39'1212.3
2019-Dec-01 04:00N 38°00' W 026°32'2143.7
2019-Dec-01 04:00N 38°00' W 026°30'611.7 140 / 91026.027.0 19.818.223.0
2019-Dec-01 03:31N 37°55' W 026°28'1313.2
2019-Dec-01 02:30N 37°43' W 026°20'3212.8
2019-Dec-01 00:00N 37°16' W 025°59'1312.8
2019-Nov-30 23:01N 37°07' W 025°48'2013.1
2019-Nov-30 21:30N 36°52' W 025°31'1313.2
2019-Nov-30 20:31N 36°43' W 025°20'2013.2
2019-Nov-30 19:01N 36°29' W 025°02'713.0
2019-Nov-30 18:31N 36°24' W 024°57'3614.2
2019-Nov-30 16:00N 36°00' W 024°24'5714.3 180 / 51025.027.0 22.717.225.0
2019-Nov-30 12:00N 35°18' W 023°36'5012.4 120 / 61026.0 5.4 21.0 24.0
2019-Nov-30 08:00N 34°42' W 022°54'6616.4 090 / 71024.010.8 21.0 24.0
2019-Nov-30 04:00N 33°54' W 022°00'19015.9 1023.027.0 20.216.125.0
2019-Nov-29 16:00N 31°36' W 019°24'7518.6 080 / 41019.027.0 21.316.226.0
2019-Nov-29 12:00N 30°42' W 018°24'11314.4 080 / 151021.0 5.4 22.0 25.0
2019-Nov-29 04:10N 29°21' W 016°53'1816.3
2019-Nov-29 03:05N 29°09' W 016°39'443.0
2019-Nov-29 03:00N 29°06' W 016°36'511.0 050 / 201017.027.0 20.316.625.0
2019-Nov-29 02:30N 29°02' W 016°32'816.1
2019-Nov-29 02:00N 28°56' W 016°25'2415.8
2019-Nov-29 00:30N 28°39' W 016°07'13 4.2
2019-Nov-28 21:28N 28°28' W 016°15'0 0.0
2019-Nov-28 19:58N 28°28' W 016°15'0 0.0
2019-Nov-28 19:28N 28°28' W 016°15'0 0.0
2019-Nov-28 18:58N 28°28' W 016°15'0 0.0
2019-Nov-28 18:00N 28°28' W 016°15'0 0.0
2019-Nov-28 16:29N 28°28' W 016°15'0 0.0
2019-Nov-28 15:59N 28°28' W 016°15'0 0.0
2019-Nov-28 14:29N 28°28' W 016°15'0 0.0
2019-Nov-28 13:58N 28°28' W 016°15'0 0.0
2019-Nov-28 13:28N 28°28' W 016°15'0 0.0
2019-Nov-28 07:28N 28°28' W 016°15'0 0.0
2019-Nov-28 06:29N 28°28' W 016°15'0 0.0
2019-Nov-28 05:00N 28°28' W 016°15'0 1.0
2019-Nov-28 04:30N 28°29' W 016°14'2110.7
2019-Nov-28 02:30N 28°09' W 016°06'18015.7
2019-Nov-27 15:00N 25°30' W 017°42'18915.8 060 / 181014.027.0 21.216.426.0
2019-Nov-27 03:00N 22°42' W 019°18'7414.8 070 / 151015.027.0 20.216.825.0
2019-Nov-26 22:00N 21°36' W 019°54'11616.6 010 / 91016.0 5.4 21.0 25.0
2019-Nov-26 15:00N 19°54' W 020°54'12715.9 020 / 141015.027.0 22.316.127.0
2019-Nov-26 07:00N 18°00' W 021°54'   040 / 91015.010.8 22.0 24.0
Track history (hours):
 
Tides and Currents Weather Stations Pressure Air Temp Water Temp Dewpoint Dewpoint Depression Visibility Wind Speed Wind Dir Waves Ship Positions

Celebrity Mercury

Last reported at 2019-Dec-06 04:29 UTC. Time now 2019-Dec-06 06:29 UTC.
Position N 28°08' W 015°25'.

Length 264 m; draft 8.5 m.

Type: Passenger vessel. MMSI: 249053000.

Date/timePositionNaut miles runAvg speedWind from/ knotsBaromVisibWave heightAir tempDewpointWater temp
2019-Dec-06 04:29N 28°08' W 015°25'0 0.0
2019-Dec-06 01:58N 28°08' W 015°25'0 0.0
2019-Dec-06 01:28N 28°08' W 015°25'0 0.0
2019-Dec-05 22:29N 28°08' W 015°25'0 0.0
2019-Dec-05 19:27N 28°08' W 015°25'0 0.0
2019-Dec-05 18:27N 28°08' W 015°25'0 0.0
2019-Dec-05 17:30N 28°08' W 015°25'0 0.0
2019-Dec-05 16:30N 28°08' W 015°25'0 0.0
2019-Dec-05 15:30N 28°08' W 015°25'0 0.0
2019-Dec-05 13:31N 28°08' W 015°25'2 4.5
2019-Dec-05 13:01N 28°08' W 015°23'19519.4
2019-Dec-05 03:00N 31°18' W 016°12'229 8.8 030 / 351015.027.0 16.812.524.0
2019-Dec-04 01:00N 34°00' W 019°24'14913.6 360 / 161022.027.0 18.112.225.0
2019-Dec-03 14:00N 35°24' W 021°54'4916.4 340 / 101022.027.0 20.212.824.0
2019-Dec-03 11:00N 35°54' W 022°42'5915.4 280 / 31024.010.8 18.0 24.0
2019-Dec-03 07:08N 36°27' W 023°43'1015.3
2019-Dec-03 06:31N 36°33' W 023°53'1515.2
2019-Dec-03 05:31N 36°42' W 024°08'1615.7
2019-Dec-03 04:30N 36°51' W 024°24'815.6
2019-Dec-03 04:00N 36°55' W 024°32'815.3
2019-Dec-03 03:30N 36°60' W 024°40'712.8
2019-Dec-03 03:00N 37°00' W 024°48'4116.4 200 / 161021.027.0 18.414.224.0
2019-Dec-03 00:30N 37°30' W 025°22'2013.1
2019-Dec-02 23:00N 37°44' W 025°40'0 0.1
2019-Dec-02 22:30N 37°44' W 025°40'0 0.0
2019-Dec-02 21:30N 37°44' W 025°40'0 0.0
2019-Dec-02 19:30N 37°44' W 025°40'0 0.0
2019-Dec-02 19:00N 37°44' W 025°40'0 0.0
2019-Dec-02 18:30N 37°44' W 025°40'0 0.0
2019-Dec-02 17:30N 37°44' W 025°40'0 0.0
2019-Dec-02 17:00N 37°44' W 025°40'0 0.0
2019-Dec-02 16:00N 37°44' W 025°40'0 0.0
2019-Dec-02 13:00N 37°44' W 025°40'0 0.0
2019-Dec-02 11:28N 37°44' W 025°40'0 0.0
2019-Dec-02 08:30N 37°44' W 025°40'3 3.0
2019-Dec-02 07:31N 37°43' W 025°43'4 7.1
2019-Dec-02 07:01N 37°44' W 025°47'8 7.6
2019-Dec-02 06:00N 37°49' W 025°55'11 7.5
2019-Dec-02 04:31N 37°57' W 026°05'4 7.9
2019-Dec-02 04:01N 37°60' W 026°08'2105.5
2019-Dec-02 04:00N 38°00' W 026°06'510.6 170 / 171026.027.0 19.116.024.0
2019-Dec-02 03:30N 38°02' W 026°12'16 7.8
2019-Dec-02 01:30N 38°14' W 026°26'15 7.7
2019-Dec-01 23:30N 38°25' W 026°39'26 6.8
2019-Dec-01 19:41N 38°43' W 027°03'0 0.0
2019-Dec-01 11:23N 38°43' W 027°03'0 0.0
2019-Dec-01 08:30N 38°43' W 027°03'3010.1
2019-Dec-01 05:30N 38°17' W 026°43'612.8
2019-Dec-01 05:00N 38°11' W 026°39'1212.3
2019-Dec-01 04:00N 38°00' W 026°32'2143.7
2019-Dec-01 04:00N 38°00' W 026°30'611.7 140 / 91026.027.0 19.818.223.0
2019-Dec-01 03:31N 37°55' W 026°28'1313.2
2019-Dec-01 02:30N 37°43' W 026°20'3212.8
2019-Dec-01 00:00N 37°16' W 025°59'1312.8
2019-Nov-30 23:01N 37°07' W 025°48'2013.1
2019-Nov-30 21:30N 36°52' W 025°31'1313.2
2019-Nov-30 20:31N 36°43' W 025°20'2013.2
2019-Nov-30 19:01N 36°29' W 025°02'713.0
2019-Nov-30 18:31N 36°24' W 024°57'3614.2
2019-Nov-30 16:00N 36°00' W 024°24'5714.3 180 / 51025.027.0 22.717.225.0
2019-Nov-30 12:00N 35°18' W 023°36'5012.4 120 / 61026.0 5.4 21.0 24.0
2019-Nov-30 08:00N 34°42' W 022°54'6616.4 090 / 71024.010.8 21.0 24.0
2019-Nov-30 04:00N 33°54' W 022°00'19015.9 1023.027.0 20.216.125.0
2019-Nov-29 16:00N 31°36' W 019°24'7518.6 080 / 41019.027.0 21.316.226.0
2019-Nov-29 12:00N 30°42' W 018°24'11314.4 080 / 151021.0 5.4 22.0 25.0
2019-Nov-29 04:10N 29°21' W 016°53'1816.3
2019-Nov-29 03:05N 29°09' W 016°39'443.0
2019-Nov-29 03:00N 29°06' W 016°36'511.0 050 / 201017.027.0 20.316.625.0
2019-Nov-29 02:30N 29°02' W 016°32'816.1
2019-Nov-29 02:00N 28°56' W 016°25'2415.8
2019-Nov-29 00:30N 28°39' W 016°07'13 4.2
2019-Nov-28 21:28N 28°28' W 016°15'0 0.0
2019-Nov-28 19:58N 28°28' W 016°15'0 0.0
2019-Nov-28 19:28N 28°28' W 016°15'0 0.0
2019-Nov-28 18:58N 28°28' W 016°15'0 0.0
2019-Nov-28 18:00N 28°28' W 016°15'0 0.0
2019-Nov-28 16:29N 28°28' W 016°15'0 0.0
2019-Nov-28 15:59N 28°28' W 016°15'0 0.0
2019-Nov-28 14:29N 28°28' W 016°15'0 0.0
2019-Nov-28 13:58N 28°28' W 016°15'0 0.0
2019-Nov-28 13:28N 28°28' W 016°15'0 0.0
2019-Nov-28 07:28N 28°28' W 016°15'0 0.0
2019-Nov-28 06:29N 28°28' W 016°15'0 0.0
2019-Nov-28 05:00N 28°28' W 016°15'0 1.0
2019-Nov-28 04:30N 28°29' W 016°14'2110.7
2019-Nov-28 02:30N 28°09' W 016°06'18015.7
2019-Nov-27 15:00N 25°30' W 017°42'18915.8 060 / 181014.027.0 21.216.426.0
2019-Nov-27 03:00N 22°42' W 019°18'7414.8 070 / 151015.027.0 20.216.825.0
2019-Nov-26 22:00N 21°36' W 019°54'11616.6 010 / 91016.0 5.4 21.0 25.0
2019-Nov-26 15:00N 19°54' W 020°54'12715.9 020 / 141015.027.0 22.316.127.0
2019-Nov-26 07:00N 18°00' W 021°54'   040 / 91015.010.8 22.0 24.0

Dump ship's entire track history